sensor_id;sensor_type;location;lat;lon;timestamp;P1;durP1;ratioP1;P2;durP2;ratioP2
68284;SDS011;55114;52.052;5.238;2022-07-30T00:00:49;9.93;;;4.30;;
68284;SDS011;55114;52.052;5.238;2022-07-30T00:03:17;10.55;;;4.35;;
68284;SDS011;55114;52.052;5.238;2022-07-30T00:05:44;10.17;;;4.30;;
68284;SDS011;55114;52.052;5.238;2022-07-30T00:08:11;9.98;;;4.60;;
68284;SDS011;55114;52.052;5.238;2022-07-30T00:10:39;9.52;;;4.40;;
68284;SDS011;55114;52.052;5.238;2022-07-30T00:13:06;9.77;;;4.78;;
68284;SDS011;55114;52.052;5.238;2022-07-30T00:15:33;11.10;;;3.88;;
68284;SDS011;55114;52.052;5.238;2022-07-30T00:18:01;11.87;;;4.37;;
68284;SDS011;55114;52.052;5.238;2022-07-30T00:20:28;7.20;;;4.00;;
68284;SDS011;55114;52.052;5.238;2022-07-30T00:22:57;8.32;;;4.03;;
68284;SDS011;55114;52.052;5.238;2022-07-30T00:25:24;9.55;;;4.03;;
68284;SDS011;55114;52.052;5.238;2022-07-30T00:27:52;8.63;;;4.45;;
68284;SDS011;55114;52.052;5.238;2022-07-30T00:30:19;12.07;;;4.33;;
68284;SDS011;55114;52.052;5.238;2022-07-30T00:32:46;8.20;;;4.20;;
68284;SDS011;55114;52.052;5.238;2022-07-30T00:35:14;9.63;;;4.47;;
68284;SDS011;55114;52.052;5.238;2022-07-30T00:37:41;13.65;;;4.70;;
68284;SDS011;55114;52.052;5.238;2022-07-30T00:40:08;8.77;;;4.60;;
68284;SDS011;55114;52.052;5.238;2022-07-30T00:42:45;11.20;;;4.60;;
68284;SDS011;55114;52.052;5.238;2022-07-30T00:45:13;9.35;;;4.20;;
68284;SDS011;55114;52.052;5.238;2022-07-30T00:47:40;8.80;;;4.40;;
68284;SDS011;55114;52.052;5.238;2022-07-30T00:50:09;8.93;;;4.43;;
68284;SDS011;55114;52.052;5.238;2022-07-30T00:52:36;8.65;;;4.32;;
68284;SDS011;55114;52.052;5.238;2022-07-30T00:55:04;8.37;;;4.83;;
68284;SDS011;55114;52.052;5.238;2022-07-30T00:57:32;9.65;;;4.90;;
68284;SDS011;55114;52.052;5.238;2022-07-30T01:00:00;11.65;;;5.53;;
68284;SDS011;55114;52.052;5.238;2022-07-30T01:02:27;10.07;;;4.57;;
68284;SDS011;55114;52.052;5.238;2022-07-30T01:04:54;9.73;;;4.65;;
68284;SDS011;55114;52.052;5.238;2022-07-30T01:07:21;10.47;;;4.63;;
68284;SDS011;55114;52.052;5.238;2022-07-30T01:09:52;10.20;;;4.90;;
68284;SDS011;55114;52.052;5.238;2022-07-30T01:12:19;11.88;;;5.15;;
68284;SDS011;55114;52.052;5.238;2022-07-30T01:14:49;10.65;;;5.22;;
68284;SDS011;55114;52.052;5.238;2022-07-30T01:17:16;9.88;;;5.13;;
68284;SDS011;55114;52.052;5.238;2022-07-30T01:19:44;9.50;;;4.73;;
68284;SDS011;55114;52.052;5.238;2022-07-30T01:27:33;8.95;;;4.75;;
68284;SDS011;55114;52.052;5.238;2022-07-30T01:30:02;9.32;;;4.75;;
68284;SDS011;55114;52.052;5.238;2022-07-30T01:32:30;10.50;;;4.80;;
68284;SDS011;55114;52.052;5.238;2022-07-30T01:34:59;9.45;;;4.85;;
68284;SDS011;55114;52.052;5.238;2022-07-30T01:37:27;10.23;;;5.22;;
68284;SDS011;55114;52.052;5.238;2022-07-30T01:39:55;9.77;;;5.22;;
68284;SDS011;55114;52.052;5.238;2022-07-30T01:42:22;11.32;;;5.53;;
68284;SDS011;55114;52.052;5.238;2022-07-30T01:44:50;11.83;;;5.50;;
68284;SDS011;55114;52.052;5.238;2022-07-30T01:47:17;13.85;;;5.50;;
68284;SDS011;55114;52.052;5.238;2022-07-30T01:49:45;9.10;;;4.97;;
68284;SDS011;55114;52.052;5.238;2022-07-30T01:52:16;10.43;;;5.07;;
68284;SDS011;55114;52.052;5.238;2022-07-30T01:54:44;7.97;;;4.93;;
68284;SDS011;55114;52.052;5.238;2022-07-30T01:57:13;8.87;;;4.90;;
68284;SDS011;55114;52.052;5.238;2022-07-30T01:59:41;9.48;;;4.88;;
68284;SDS011;55114;52.052;5.238;2022-07-30T02:02:09;10.27;;;5.15;;
68284;SDS011;55114;52.052;5.238;2022-07-30T02:04:43;11.20;;;5.30;;
68284;SDS011;55114;52.052;5.238;2022-07-30T02:07:13;10.98;;;5.63;;
68284;SDS011;55114;52.052;5.238;2022-07-30T02:09:52;10.23;;;5.67;;
68284;SDS011;55114;52.052;5.238;2022-07-30T02:12:20;10.57;;;5.60;;
68284;SDS011;55114;52.052;5.238;2022-07-30T02:17:42;11.43;;;6.00;;
68284;SDS011;55114;52.052;5.238;2022-07-30T02:20:12;12.02;;;6.68;;
68284;SDS011;55114;52.052;5.238;2022-07-30T02:22:41;10.40;;;6.37;;
68284;SDS011;55114;52.052;5.238;2022-07-30T02:25:10;13.15;;;7.25;;
68284;SDS011;55114;52.052;5.238;2022-07-30T02:27:39;12.73;;;6.82;;
68284;SDS011;55114;52.052;5.238;2022-07-30T02:30:08;13.68;;;7.60;;
68284;SDS011;55114;52.052;5.238;2022-07-30T02:32:36;10.85;;;6.47;;
68284;SDS011;55114;52.052;5.238;2022-07-30T02:35:38;11.57;;;6.47;;
68284;SDS011;55114;52.052;5.238;2022-07-30T02:37:58;10.75;;;6.75;;
68284;SDS011;55114;52.052;5.238;2022-07-30T02:40:26;14.75;;;7.13;;
68284;SDS011;55114;52.052;5.238;2022-07-30T02:42:53;15.02;;;7.53;;
68284;SDS011;55114;52.052;5.238;2022-07-30T02:45:23;13.32;;;6.85;;
68284;SDS011;55114;52.052;5.238;2022-07-30T02:47:54;11.67;;;6.47;;
68284;SDS011;55114;52.052;5.238;2022-07-30T02:50:22;15.93;;;7.05;;
68284;SDS011;55114;52.052;5.238;2022-07-30T02:52:50;15.13;;;7.00;;
68284;SDS011;55114;52.052;5.238;2022-07-30T02:55:19;10.73;;;6.35;;
68284;SDS011;55114;52.052;5.238;2022-07-30T02:57:47;10.80;;;6.20;;
68284;SDS011;55114;52.052;5.238;2022-07-30T03:00:15;13.53;;;6.60;;
68284;SDS011;55114;52.052;5.238;2022-07-30T03:02:42;12.93;;;6.97;;
68284;SDS011;55114;52.052;5.238;2022-07-30T03:05:12;15.05;;;7.15;;
68284;SDS011;55114;52.052;5.238;2022-07-30T03:07:40;12.50;;;6.40;;
68284;SDS011;55114;52.052;5.238;2022-07-30T03:10:09;15.13;;;7.25;;
68284;SDS011;55114;52.052;5.238;2022-07-30T03:12:37;13.37;;;6.70;;
68284;SDS011;55114;52.052;5.238;2022-07-30T03:15:06;12.60;;;6.47;;
68284;SDS011;55114;52.052;5.238;2022-07-30T03:17:35;11.05;;;6.63;;
68284;SDS011;55114;52.052;5.238;2022-07-30T03:20:04;14.82;;;7.53;;
68284;SDS011;55114;52.052;5.238;2022-07-30T03:22:34;15.88;;;7.78;;
68284;SDS011;55114;52.052;5.238;2022-07-30T03:25:06;12.60;;;7.13;;
68284;SDS011;55114;52.052;5.238;2022-07-30T03:27:34;14.75;;;7.93;;
68284;SDS011;55114;52.052;5.238;2022-07-30T03:30:03;15.88;;;7.70;;
68284;SDS011;55114;52.052;5.238;2022-07-30T03:32:30;14.27;;;8.07;;
68284;SDS011;55114;52.052;5.238;2022-07-30T03:34:58;13.65;;;7.78;;
68284;SDS011;55114;52.052;5.238;2022-07-30T03:37:31;14.17;;;7.80;;
68284;SDS011;55114;52.052;5.238;2022-07-30T03:40:00;16.15;;;7.78;;
68284;SDS011;55114;52.052;5.238;2022-07-30T03:42:29;14.90;;;8.30;;
68284;SDS011;55114;52.052;5.238;2022-07-30T03:44:57;13.32;;;7.90;;
68284;SDS011;55114;52.052;5.238;2022-07-30T03:47:25;16.60;;;7.75;;
68284;SDS011;55114;52.052;5.238;2022-07-30T03:49:53;14.93;;;8.30;;
68284;SDS011;55114;52.052;5.238;2022-07-30T03:52:20;14.98;;;8.07;;
68284;SDS011;55114;52.052;5.238;2022-07-30T03:54:47;15.82;;;8.60;;
68284;SDS011;55114;52.052;5.238;2022-07-30T03:57:15;16.05;;;8.50;;
68284;SDS011;55114;52.052;5.238;2022-07-30T03:59:45;16.17;;;8.60;;
68284;SDS011;55114;52.052;5.238;2022-07-30T04:02:13;14.93;;;9.17;;
68284;SDS011;55114;52.052;5.238;2022-07-30T04:04:40;16.35;;;9.40;;
68284;SDS011;55114;52.052;5.238;2022-07-30T04:07:08;15.02;;;9.20;;
68284;SDS011;55114;52.052;5.238;2022-07-30T04:09:35;17.80;;;9.65;;
68284;SDS011;55114;52.052;5.238;2022-07-30T04:12:02;15.02;;;9.45;;
68284;SDS011;55114;52.052;5.238;2022-07-30T04:14:40;17.43;;;9.93;;
68284;SDS011;55114;52.052;5.238;2022-07-30T04:17:09;17.40;;;9.60;;
68284;SDS011;55114;52.052;5.238;2022-07-30T04:19:38;17.45;;;10.60;;
68284;SDS011;55114;52.052;5.238;2022-07-30T04:22:07;17.33;;;9.95;;
68284;SDS011;55114;52.052;5.238;2022-07-30T04:24:38;19.10;;;10.00;;
68284;SDS011;55114;52.052;5.238;2022-07-30T04:27:06;19.33;;;10.60;;
68284;SDS011;55114;52.052;5.238;2022-07-30T04:29:33;21.98;;;9.32;;
68284;SDS011;55114;52.052;5.238;2022-07-30T04:32:00;16.88;;;9.82;;
68284;SDS011;55114;52.052;5.238;2022-07-30T04:34:27;19.48;;;10.05;;
68284;SDS011;55114;52.052;5.238;2022-07-30T04:36:55;16.90;;;9.60;;
68284;SDS011;55114;52.052;5.238;2022-07-30T04:39:23;16.13;;;9.63;;
68284;SDS011;55114;52.052;5.238;2022-07-30T04:41:50;17.13;;;9.85;;
68284;SDS011;55114;52.052;5.238;2022-07-30T04:44:18;15.68;;;9.45;;
68284;SDS011;55114;52.052;5.238;2022-07-30T04:46:45;17.88;;;10.00;;
68284;SDS011;55114;52.052;5.238;2022-07-30T04:49:14;16.23;;;9.77;;
68284;SDS011;55114;52.052;5.238;2022-07-30T04:51:42;16.87;;;9.87;;
68284;SDS011;55114;52.052;5.238;2022-07-30T04:54:10;17.05;;;9.40;;
68284;SDS011;55114;52.052;5.238;2022-07-30T04:56:41;20.52;;;10.25;;
68284;SDS011;55114;52.052;5.238;2022-07-30T04:59:19;16.73;;;9.60;;
68284;SDS011;55114;52.052;5.238;2022-07-30T05:01:47;15.77;;;9.45;;
68284;SDS011;55114;52.052;5.238;2022-07-30T05:04:15;17.43;;;9.47;;
68284;SDS011;55114;52.052;5.238;2022-07-30T05:06:43;15.93;;;9.57;;
68284;SDS011;55114;52.052;5.238;2022-07-30T05:09:13;17.17;;;10.00;;
68284;SDS011;55114;52.052;5.238;2022-07-30T05:11:41;19.60;;;9.38;;
68284;SDS011;55114;52.052;5.238;2022-07-30T05:14:08;17.65;;;9.48;;
68284;SDS011;55114;52.052;5.238;2022-07-30T05:16:35;15.73;;;8.90;;
68284;SDS011;55114;52.052;5.238;2022-07-30T05:19:02;14.18;;;8.18;;
68284;SDS011;55114;52.052;5.238;2022-07-30T05:21:33;14.75;;;8.20;;
68284;SDS011;55114;52.052;5.238;2022-07-30T05:24:00;16.55;;;8.45;;
68284;SDS011;55114;52.052;5.238;2022-07-30T05:26:27;14.32;;;8.20;;
68284;SDS011;55114;52.052;5.238;2022-07-30T05:28:54;11.40;;;7.73;;
68284;SDS011;55114;52.052;5.238;2022-07-30T05:31:22;15.50;;;8.10;;
68284;SDS011;55114;52.052;5.238;2022-07-30T05:33:50;11.90;;;7.28;;
68284;SDS011;55114;52.052;5.238;2022-07-30T05:36:18;11.55;;;7.70;;
68284;SDS011;55114;52.052;5.238;2022-07-30T05:38:46;13.57;;;7.97;;
68284;SDS011;55114;52.052;5.238;2022-07-30T05:41:13;10.70;;;7.20;;
68284;SDS011;55114;52.052;5.238;2022-07-30T05:43:58;11.65;;;7.63;;
68284;SDS011;55114;52.052;5.238;2022-07-30T05:46:26;11.52;;;6.78;;
68284;SDS011;55114;52.052;5.238;2022-07-30T05:48:53;11.63;;;6.97;;
68284;SDS011;55114;52.052;5.238;2022-07-30T05:51:21;11.15;;;7.00;;
68284;SDS011;55114;52.052;5.238;2022-07-30T05:53:48;11.90;;;6.97;;
68284;SDS011;55114;52.052;5.238;2022-07-30T05:56:16;11.98;;;7.00;;
68284;SDS011;55114;52.052;5.238;2022-07-30T05:58:44;13.80;;;6.70;;
68284;SDS011;55114;52.052;5.238;2022-07-30T06:01:11;12.30;;;6.43;;
68284;SDS011;55114;52.052;5.238;2022-07-30T06:03:38;12.07;;;7.05;;
68284;SDS011;55114;52.052;5.238;2022-07-30T06:06:05;12.53;;;6.43;;
68284;SDS011;55114;52.052;5.238;2022-07-30T06:08:33;11.80;;;6.32;;
68284;SDS011;55114;52.052;5.238;2022-07-30T06:11:01;11.70;;;6.78;;
68284;SDS011;55114;52.052;5.238;2022-07-30T06:13:28;11.02;;;6.57;;
68284;SDS011;55114;52.052;5.238;2022-07-30T06:15:55;9.32;;;6.18;;
68284;SDS011;55114;52.052;5.238;2022-07-30T06:18:22;10.27;;;5.30;;
68284;SDS011;55114;52.052;5.238;2022-07-30T06:20:50;9.82;;;5.88;;
68284;SDS011;55114;52.052;5.238;2022-07-30T06:23:19;9.77;;;5.57;;
68284;SDS011;55114;52.052;5.238;2022-07-30T06:25:47;7.57;;;4.38;;
68284;SDS011;55114;52.052;5.238;2022-07-30T06:28:15;8.38;;;3.97;;
68284;SDS011;55114;52.052;5.238;2022-07-30T06:31:02;9.83;;;3.47;;
68284;SDS011;55114;52.052;5.238;2022-07-30T06:33:30;8.57;;;3.53;;
68284;SDS011;55114;52.052;5.238;2022-07-30T06:35:57;10.70;;;3.78;;
68284;SDS011;55114;52.052;5.238;2022-07-30T06:38:24;11.82;;;4.20;;
68284;SDS011;55114;52.052;5.238;2022-07-30T06:40:52;9.00;;;4.10;;
68284;SDS011;55114;52.052;5.238;2022-07-30T06:43:19;9.87;;;4.20;;
68284;SDS011;55114;52.052;5.238;2022-07-30T06:45:46;9.93;;;3.50;;
68284;SDS011;55114;52.052;5.238;2022-07-30T06:48:13;7.00;;;2.95;;
68284;SDS011;55114;52.052;5.238;2022-07-30T06:50:41;6.50;;;3.45;;
68284;SDS011;55114;52.052;5.238;2022-07-30T06:53:08;6.68;;;3.50;;
68284;SDS011;55114;52.052;5.238;2022-07-30T06:55:35;8.87;;;3.20;;
68284;SDS011;55114;52.052;5.238;2022-07-30T06:58:03;8.27;;;3.20;;
68284;SDS011;55114;52.052;5.238;2022-07-30T07:00:30;6.93;;;3.00;;
68284;SDS011;55114;52.052;5.238;2022-07-30T07:02:58;7.90;;;3.50;;
68284;SDS011;55114;52.052;5.238;2022-07-30T07:05:26;6.93;;;2.90;;
68284;SDS011;55114;52.052;5.238;2022-07-30T07:07:54;5.10;;;2.60;;
68284;SDS011;55114;52.052;5.238;2022-07-30T07:10:25;8.23;;;2.60;;
68284;SDS011;55114;52.052;5.238;2022-07-30T07:12:53;6.95;;;2.75;;
68284;SDS011;55114;52.052;5.238;2022-07-30T07:15:20;5.13;;;2.38;;
68284;SDS011;55114;52.052;5.238;2022-07-30T07:18:02;7.35;;;2.70;;
68284;SDS011;55114;52.052;5.238;2022-07-30T07:20:30;6.60;;;2.70;;
68284;SDS011;55114;52.052;5.238;2022-07-30T07:22:58;5.93;;;2.47;;
68284;SDS011;55114;52.052;5.238;2022-07-30T07:25:25;7.63;;;2.60;;
68284;SDS011;55114;52.052;5.238;2022-07-30T07:27:53;6.53;;;2.80;;
68284;SDS011;55114;52.052;5.238;2022-07-30T07:30:38;5.28;;;2.50;;
68284;SDS011;55114;52.052;5.238;2022-07-30T07:33:05;5.50;;;3.00;;
68284;SDS011;55114;52.052;5.238;2022-07-30T07:35:32;4.65;;;2.80;;
68284;SDS011;55114;52.052;5.238;2022-07-30T07:38:13;6.47;;;2.78;;
68284;SDS011;55114;52.052;5.238;2022-07-30T07:40:41;6.63;;;2.95;;
68284;SDS011;55114;52.052;5.238;2022-07-30T07:43:08;6.63;;;3.00;;
68284;SDS011;55114;52.052;5.238;2022-07-30T07:45:35;5.93;;;3.23;;
68284;SDS011;55114;52.052;5.238;2022-07-30T07:48:03;6.57;;;3.05;;
68284;SDS011;55114;52.052;5.238;2022-07-30T07:50:31;4.85;;;2.85;;
68284;SDS011;55114;52.052;5.238;2022-07-30T07:52:58;5.32;;;2.72;;
68284;SDS011;55114;52.052;5.238;2022-07-30T07:55:26;6.85;;;2.70;;
68284;SDS011;55114;52.052;5.238;2022-07-30T07:57:56;8.47;;;2.90;;
68284;SDS011;55114;52.052;5.238;2022-07-30T08:00:27;6.70;;;3.00;;
68284;SDS011;55114;52.052;5.238;2022-07-30T08:02:54;5.40;;;3.20;;
68284;SDS011;55114;52.052;5.238;2022-07-30T08:05:22;4.20;;;2.95;;
68284;SDS011;55114;52.052;5.238;2022-07-30T08:08:09;6.53;;;3.17;;
68284;SDS011;55114;52.052;5.238;2022-07-30T08:10:37;6.30;;;3.40;;
68284;SDS011;55114;52.052;5.238;2022-07-30T08:13:05;5.65;;;3.15;;
68284;SDS011;55114;52.052;5.238;2022-07-30T08:15:53;6.07;;;3.03;;
68284;SDS011;55114;52.052;5.238;2022-07-30T08:18:21;7.45;;;3.20;;
68284;SDS011;55114;52.052;5.238;2022-07-30T08:20:48;6.68;;;3.20;;
68284;SDS011;55114;52.052;5.238;2022-07-30T08:23:16;5.33;;;2.87;;
68284;SDS011;55114;52.052;5.238;2022-07-30T08:25:44;5.68;;;2.80;;
68284;SDS011;55114;52.052;5.238;2022-07-30T08:28:12;5.93;;;3.10;;
68284;SDS011;55114;52.052;5.238;2022-07-30T08:30:59;5.68;;;2.70;;
68284;SDS011;55114;52.052;5.238;2022-07-30T08:33:27;6.10;;;3.30;;
68284;SDS011;55114;52.052;5.238;2022-07-30T08:35:54;6.03;;;3.00;;
68284;SDS011;55114;52.052;5.238;2022-07-30T08:38:29;5.03;;;3.10;;
68284;SDS011;55114;52.052;5.238;2022-07-30T08:40:56;5.57;;;3.17;;
68284;SDS011;55114;52.052;5.238;2022-07-30T08:43:24;4.82;;;3.00;;
68284;SDS011;55114;52.052;5.238;2022-07-30T08:45:52;8.70;;;3.13;;
68284;SDS011;55114;52.052;5.238;2022-07-30T08:48:20;5.50;;;3.07;;
68284;SDS011;55114;52.052;5.238;2022-07-30T08:50:48;5.03;;;2.90;;
68284;SDS011;55114;52.052;5.238;2022-07-30T08:53:16;5.75;;;2.90;;
68284;SDS011;55114;52.052;5.238;2022-07-30T08:55:44;6.20;;;2.90;;
68284;SDS011;55114;52.052;5.238;2022-07-30T08:58:22;6.70;;;2.95;;
68284;SDS011;55114;52.052;5.238;2022-07-30T09:00:52;4.77;;;3.00;;
68284;SDS011;55114;52.052;5.238;2022-07-30T09:03:24;5.70;;;2.80;;
68284;SDS011;55114;52.052;5.238;2022-07-30T09:05:51;5.72;;;2.90;;
68284;SDS011;55114;52.052;5.238;2022-07-30T09:08:18;7.20;;;3.33;;
68284;SDS011;55114;52.052;5.238;2022-07-30T09:10:46;5.43;;;3.10;;
68284;SDS011;55114;52.052;5.238;2022-07-30T09:13:52;5.63;;;2.47;;
68284;SDS011;55114;52.052;5.238;2022-07-30T09:16:19;6.05;;;2.60;;
68284;SDS011;55114;52.052;5.238;2022-07-30T09:18:47;6.22;;;2.58;;
68284;SDS011;55114;52.052;5.238;2022-07-30T09:21:15;5.90;;;2.80;;
68284;SDS011;55114;52.052;5.238;2022-07-30T09:26:22;5.80;;;2.47;;
68284;SDS011;55114;52.052;5.238;2022-07-30T09:28:49;4.40;;;2.40;;
68284;SDS011;55114;52.052;5.238;2022-07-30T09:31:16;5.55;;;2.50;;
68284;SDS011;55114;52.052;5.238;2022-07-30T09:33:44;4.88;;;2.45;;
68284;SDS011;55114;52.052;5.238;2022-07-30T09:36:13;5.05;;;2.30;;
68284;SDS011;55114;52.052;5.238;2022-07-30T09:38:46;5.97;;;2.53;;
68284;SDS011;55114;52.052;5.238;2022-07-30T09:41:14;4.50;;;2.20;;
68284;SDS011;55114;52.052;5.238;2022-07-30T09:44:02;4.22;;;2.17;;
68284;SDS011;55114;52.052;5.238;2022-07-30T09:46:40;4.28;;;2.20;;
68284;SDS011;55114;52.052;5.238;2022-07-30T09:49:21;4.28;;;2.28;;
68284;SDS011;55114;52.052;5.238;2022-07-30T09:51:49;7.20;;;2.60;;
68284;SDS011;55114;52.052;5.238;2022-07-30T09:54:21;4.45;;;2.60;;
68284;SDS011;55114;52.052;5.238;2022-07-30T09:57:04;4.68;;;2.63;;
68284;SDS011;55114;52.052;5.238;2022-07-30T09:59:52;6.13;;;2.67;;
68284;SDS011;55114;52.052;5.238;2022-07-30T10:02:20;4.20;;;2.50;;
68284;SDS011;55114;52.052;5.238;2022-07-30T10:05:07;5.73;;;2.47;;
68284;SDS011;55114;52.052;5.238;2022-07-30T10:07:39;4.20;;;2.30;;
68284;SDS011;55114;52.052;5.238;2022-07-30T10:10:13;5.07;;;2.55;;
68284;SDS011;55114;52.052;5.238;2022-07-30T10:12:42;7.47;;;2.42;;
68284;SDS011;55114;52.052;5.238;2022-07-30T10:15:11;5.80;;;2.30;;
68284;SDS011;55114;52.052;5.238;2022-07-30T10:17:39;4.70;;;2.40;;
68284;SDS011;55114;52.052;5.238;2022-07-30T10:20:07;4.90;;;2.47;;
68284;SDS011;55114;52.052;5.238;2022-07-30T10:22:37;3.20;;;2.05;;
68284;SDS011;55114;52.052;5.238;2022-07-30T10:25:04;4.78;;;2.35;;
68284;SDS011;55114;52.052;5.238;2022-07-30T10:27:32;4.93;;;2.40;;
68284;SDS011;55114;52.052;5.238;2022-07-30T10:29:59;3.70;;;2.07;;
68284;SDS011;55114;52.052;5.238;2022-07-30T10:32:29;4.75;;;2.20;;
68284;SDS011;55114;52.052;5.238;2022-07-30T10:34:58;3.88;;;2.08;;
68284;SDS011;55114;52.052;5.238;2022-07-30T10:37:28;5.97;;;2.00;;
68284;SDS011;55114;52.052;5.238;2022-07-30T10:40:02;3.33;;;2.40;;
68284;SDS011;55114;52.052;5.238;2022-07-30T10:42:36;3.40;;;1.97;;
68284;SDS011;55114;52.052;5.238;2022-07-30T10:45:16;4.07;;;2.35;;
68284;SDS011;55114;52.052;5.238;2022-07-30T10:47:45;3.63;;;2.50;;
68284;SDS011;55114;52.052;5.238;2022-07-30T10:50:16;3.67;;;2.20;;
68284;SDS011;55114;52.052;5.238;2022-07-30T10:55:25;4.60;;;2.60;;
68284;SDS011;55114;52.052;5.238;2022-07-30T11:00:32;3.67;;;2.28;;
68284;SDS011;55114;52.052;5.238;2022-07-30T11:03:13;5.97;;;2.53;;
68284;SDS011;55114;52.052;5.238;2022-07-30T11:05:42;3.67;;;2.17;;
68284;SDS011;55114;52.052;5.238;2022-07-30T11:08:30;3.70;;;2.30;;
68284;SDS011;55114;52.052;5.238;2022-07-30T11:11:02;4.35;;;2.30;;
68284;SDS011;55114;52.052;5.238;2022-07-30T11:16:19;4.15;;;2.28;;
68284;SDS011;55114;52.052;5.238;2022-07-30T11:19:03;3.58;;;2.20;;
68284;SDS011;55114;52.052;5.238;2022-07-30T11:24:46;4.00;;;2.45;;
68284;SDS011;55114;52.052;5.238;2022-07-30T11:30:02;4.53;;;2.30;;
68284;SDS011;55114;52.052;5.238;2022-07-30T11:32:30;4.10;;;2.30;;
68284;SDS011;55114;52.052;5.238;2022-07-30T11:35:17;3.97;;;2.43;;
68284;SDS011;55114;52.052;5.238;2022-07-30T11:38:08;4.40;;;2.30;;
68284;SDS011;55114;52.052;5.238;2022-07-30T11:43:48;4.88;;;2.28;;
68284;SDS011;55114;52.052;5.238;2022-07-30T11:46:05;3.85;;;2.60;;
68284;SDS011;55114;52.052;5.238;2022-07-30T11:48:36;5.07;;;2.50;;
68284;SDS011;55114;52.052;5.238;2022-07-30T11:51:05;4.35;;;2.50;;
68284;SDS011;55114;52.052;5.238;2022-07-30T11:53:32;6.05;;;2.70;;
68284;SDS011;55114;52.052;5.238;2022-07-30T11:56:01;4.28;;;2.45;;
68284;SDS011;55114;52.052;5.238;2022-07-30T12:00:58;4.80;;;2.20;;
68284;SDS011;55114;52.052;5.238;2022-07-30T12:03:37;3.88;;;2.20;;
68284;SDS011;55114;52.052;5.238;2022-07-30T12:06:07;5.57;;;2.40;;
68284;SDS011;55114;52.052;5.238;2022-07-30T12:08:38;4.88;;;2.50;;
68284;SDS011;55114;52.052;5.238;2022-07-30T12:11:06;5.97;;;2.28;;
68284;SDS011;55114;52.052;5.238;2022-07-30T12:13:34;5.13;;;2.30;;
68284;SDS011;55114;52.052;5.238;2022-07-30T12:16:12;4.80;;;2.60;;
68284;SDS011;55114;52.052;5.238;2022-07-30T12:18:39;7.40;;;2.65;;
68284;SDS011;55114;52.052;5.238;2022-07-30T12:21:07;4.15;;;2.40;;
68284;SDS011;55114;52.052;5.238;2022-07-30T12:23:37;4.93;;;2.30;;
68284;SDS011;55114;52.052;5.238;2022-07-30T12:26:04;3.90;;;2.10;;
68284;SDS011;55114;52.052;5.238;2022-07-30T12:28:33;4.80;;;2.70;;
68284;SDS011;55114;52.052;5.238;2022-07-30T12:31:01;3.67;;;2.30;;
68284;SDS011;55114;52.052;5.238;2022-07-30T12:33:29;4.47;;;2.50;;
68284;SDS011;55114;52.052;5.238;2022-07-30T12:35:58;4.28;;;2.40;;
68284;SDS011;55114;52.052;5.238;2022-07-30T12:38:26;4.40;;;2.17;;
68284;SDS011;55114;52.052;5.238;2022-07-30T12:46:11;4.82;;;2.30;;
68284;SDS011;55114;52.052;5.238;2022-07-30T12:48:50;4.78;;;2.53;;
68284;SDS011;55114;52.052;5.238;2022-07-30T12:51:19;4.47;;;2.70;;
68284;SDS011;55114;52.052;5.238;2022-07-30T12:53:47;7.53;;;2.47;;
68284;SDS011;55114;52.052;5.238;2022-07-30T12:56:18;5.07;;;2.70;;
68284;SDS011;55114;52.052;5.238;2022-07-30T12:58:46;5.10;;;2.60;;
68284;SDS011;55114;52.052;5.238;2022-07-30T13:01:13;4.07;;;2.40;;
68284;SDS011;55114;52.052;5.238;2022-07-30T13:03:41;4.23;;;2.50;;
68284;SDS011;55114;52.052;5.238;2022-07-30T13:06:18;5.20;;;2.33;;
68284;SDS011;55114;52.052;5.238;2022-07-30T13:08:53;4.97;;;2.33;;
68284;SDS011;55114;52.052;5.238;2022-07-30T13:11:21;4.20;;;2.60;;
68284;SDS011;55114;52.052;5.238;2022-07-30T13:13:49;4.10;;;2.47;;
68284;SDS011;55114;52.052;5.238;2022-07-30T13:16:17;4.00;;;2.67;;
68284;SDS011;55114;52.052;5.238;2022-07-30T13:18:45;6.22;;;2.50;;
68284;SDS011;55114;52.052;5.238;2022-07-30T13:21:13;5.38;;;2.60;;
68284;SDS011;55114;52.052;5.238;2022-07-30T13:23:40;6.50;;;2.63;;
68284;SDS011;55114;52.052;5.238;2022-07-30T13:26:08;4.22;;;2.45;;
68284;SDS011;55114;52.052;5.238;2022-07-30T13:28:36;6.03;;;2.60;;
68284;SDS011;55114;52.052;5.238;2022-07-30T13:31:04;6.05;;;2.67;;
68284;SDS011;55114;52.052;5.238;2022-07-30T13:33:33;5.35;;;2.60;;
68284;SDS011;55114;52.052;5.238;2022-07-30T13:36:01;7.38;;;2.95;;
68284;SDS011;55114;52.052;5.238;2022-07-30T13:38:30;4.15;;;2.50;;
68284;SDS011;55114;52.052;5.238;2022-07-30T13:40:58;4.70;;;2.33;;
68284;SDS011;55114;52.052;5.238;2022-07-30T13:43:28;5.05;;;2.28;;
68284;SDS011;55114;52.052;5.238;2022-07-30T13:45:59;4.57;;;2.50;;
68284;SDS011;55114;52.052;5.238;2022-07-30T13:48:28;4.95;;;2.30;;
68284;SDS011;55114;52.052;5.238;2022-07-30T13:50:55;4.47;;;3.00;;
68284;SDS011;55114;52.052;5.238;2022-07-30T13:53:23;6.37;;;2.93;;
68284;SDS011;55114;52.052;5.238;2022-07-30T13:55:50;4.50;;;2.55;;
68284;SDS011;55114;52.052;5.238;2022-07-30T13:58:18;5.25;;;2.50;;
68284;SDS011;55114;52.052;5.238;2022-07-30T14:00:45;4.28;;;2.60;;
68284;SDS011;55114;52.052;5.238;2022-07-30T14:03:13;4.70;;;2.53;;
68284;SDS011;55114;52.052;5.238;2022-07-30T14:05:41;3.67;;;2.23;;
68284;SDS011;55114;52.052;5.238;2022-07-30T14:08:09;4.25;;;2.22;;
68284;SDS011;55114;52.052;5.238;2022-07-30T14:10:37;4.90;;;2.50;;
68284;SDS011;55114;52.052;5.238;2022-07-30T14:13:05;5.53;;;2.67;;
68284;SDS011;55114;52.052;5.238;2022-07-30T14:15:33;5.68;;;2.97;;
68284;SDS011;55114;52.052;5.238;2022-07-30T14:18:00;5.13;;;2.40;;
68284;SDS011;55114;52.052;5.238;2022-07-30T14:20:28;5.70;;;2.90;;
68284;SDS011;55114;52.052;5.238;2022-07-30T14:22:55;4.28;;;2.45;;
68284;SDS011;55114;52.052;5.238;2022-07-30T14:25:23;4.85;;;2.47;;
68284;SDS011;55114;52.052;5.238;2022-07-30T14:27:50;3.90;;;2.45;;
68284;SDS011;55114;52.052;5.238;2022-07-30T14:30:18;4.03;;;2.50;;
68284;SDS011;55114;52.052;5.238;2022-07-30T14:32:46;4.72;;;2.33;;
68284;SDS011;55114;52.052;5.238;2022-07-30T14:35:13;6.72;;;2.55;;
68284;SDS011;55114;52.052;5.238;2022-07-30T14:37:40;3.88;;;2.22;;
68284;SDS011;55114;52.052;5.238;2022-07-30T14:40:09;5.75;;;2.50;;
68284;SDS011;55114;52.052;5.238;2022-07-30T14:42:37;7.00;;;2.40;;
68284;SDS011;55114;52.052;5.238;2022-07-30T14:45:08;4.32;;;2.50;;
68284;SDS011;55114;52.052;5.238;2022-07-30T14:47:35;4.07;;;2.20;;
68284;SDS011;55114;52.052;5.238;2022-07-30T14:50:04;5.57;;;2.53;;
68284;SDS011;55114;52.052;5.238;2022-07-30T14:52:32;4.30;;;2.72;;
68284;SDS011;55114;52.052;5.238;2022-07-30T14:55:00;5.83;;;2.50;;
68284;SDS011;55114;52.052;5.238;2022-07-30T14:57:29;4.85;;;2.50;;
68284;SDS011;55114;52.052;5.238;2022-07-30T14:59:56;3.45;;;2.30;;
68284;SDS011;55114;52.052;5.238;2022-07-30T15:02:23;4.75;;;2.67;;
68284;SDS011;55114;52.052;5.238;2022-07-30T15:04:51;5.78;;;2.60;;
68284;SDS011;55114;52.052;5.238;2022-07-30T15:07:18;4.73;;;2.80;;
68284;SDS011;55114;52.052;5.238;2022-07-30T15:09:46;7.00;;;2.70;;
68284;SDS011;55114;52.052;5.238;2022-07-30T15:12:13;4.60;;;2.40;;
68284;SDS011;55114;52.052;5.238;2022-07-30T15:14:52;5.35;;;2.60;;
68284;SDS011;55114;52.052;5.238;2022-07-30T15:17:20;5.03;;;2.50;;
68284;SDS011;55114;52.052;5.238;2022-07-30T15:19:48;4.00;;;2.70;;
68284;SDS011;55114;52.052;5.238;2022-07-30T15:22:20;5.38;;;2.70;;
68284;SDS011;55114;52.052;5.238;2022-07-30T15:24:48;4.00;;;2.50;;
68284;SDS011;55114;52.052;5.238;2022-07-30T15:27:15;4.20;;;2.30;;
68284;SDS011;55114;52.052;5.238;2022-07-30T15:29:42;4.22;;;2.50;;
68284;SDS011;55114;52.052;5.238;2022-07-30T15:32:12;5.80;;;2.50;;